TimeEDT,TemperatureF,Dew PointF,Humidity,Sea Level PressureIn,VisibilityMPH,Wind Direction,Wind SpeedMPH,Gust SpeedMPH,PrecipitationIn,Events,Conditions,WindDirDegrees,DateUTC
12:15 AM,59.0,55.4,88,30.15,7.0,NW,3.5,-,N/A,,Clear,310,2013-08-24 04:15:00
12:36 AM,59.0,55.4,88,30.15,7.0,NW,3.5,-,N/A,,Clear,310,2013-08-24 04:36:00
12:54 AM,59.0,57.2,94,30.15,7.0,Calm,Calm,-,N/A,,Clear,0,2013-08-24 04:54:00
1:15 AM,59.0,57.2,94,30.15,7.0,Calm,Calm,-,N/A,,Clear,0,2013-08-24 05:15:00
1:36 AM,59.0,57.2,94,30.15,7.0,Calm,Calm,-,N/A,,Clear,0,2013-08-24 05:36:00
1:54 AM,57.2,55.4,94,30.15,4.0,Calm,Calm,-,N/A,,Clear,0,2013-08-24 05:54:00
2:15 AM,57.2,55.4,94,30.16,5.0,Calm,Calm,-,N/A,,Clear,0,2013-08-24 06:15:00
2:33 AM,59.0,55.4,88,30.16,5.0,Calm,Calm,-,N/A,,Clear,0,2013-08-24 06:33:00
2:54 AM,59.0,55.4,88,30.16,5.0,Calm,Calm,-,N/A,,Clear,0,2013-08-24 06:54:00
3:15 AM,57.2,55.4,94,30.17,5.0,Calm,Calm,-,N/A,,Clear,0,2013-08-24 07:15:00
3:36 AM,57.2,55.4,94,30.17,5.0,Calm,Calm,-,N/A,,Clear,0,2013-08-24 07:36:00
3:54 AM,55.4,55.4,100,30.18,4.0,Calm,Calm,-,N/A,,Clear,0,2013-08-24 07:54:00
4:15 AM,55.4,53.6,94,30.18,5.0,Calm,Calm,-,N/A,,Scattered Clouds,0,2013-08-24 08:15:00
4:36 AM,55.4,53.6,94,30.19,5.0,Calm,Calm,-,N/A,,Scattered Clouds,0,2013-08-24 08:36:00
4:57 AM,55.4,53.6,94,30.20,5.0,Calm,Calm,-,N/A,,Scattered Clouds,0,2013-08-24 08:57:00
5:15 AM,55.4,53.6,94,30.20,3.0,Calm,Calm,-,N/A,,Scattered Clouds,0,2013-08-24 09:15:00
5:36 AM,55.4,53.6,94,30.21,5.0,Calm,Calm,-,N/A,,Clear,0,2013-08-24 09:36:00
5:57 AM,55.4,53.6,94,30.21,5.0,Calm,Calm,-,N/A,,Clear,0,2013-08-24 09:57:00
6:15 AM,53.6,53.6,100,30.22,7.0,Calm,Calm,-,N/A,,Clear,0,2013-08-24 10:15:00
6:36 AM,53.6,51.8,94,30.23,4.0,Calm,Calm,-,N/A,,Clear,0,2013-08-24 10:36:00
6:57 AM,55.4,53.6,94,30.24,5.0,Calm,Calm,-,N/A,,Clear,0,2013-08-24 10:57:00
7:15 AM,55.4,53.6,94,30.24,7.0,Calm,Calm,-,N/A,,Clear,0,2013-08-24 11:15:00
7:36 AM,57.2,55.4,94,30.25,10.0,Calm,Calm,-,N/A,,Clear,0,2013-08-24 11:36:00
7:57 AM,62.6,57.2,82,30.26,10.0,North,4.6,-,N/A,,Clear,10,2013-08-24 11:57:00
8:15 AM,64.4,57.2,77,30.26,10.0,North,5.8,-,N/A,,Clear,10,2013-08-24 12:15:00
8:36 AM,68.0,55.4,64,30.27,10.0,NNE,6.9,-,N/A,,Clear,30,2013-08-24 12:36:00
8:57 AM,68.0,55.4,64,30.28,10.0,NNE,4.6,-,N/A,,Clear,30,2013-08-24 12:57:00
9:15 AM,69.8,55.4,60,30.28,10.0,ENE,8.1,-,N/A,,Clear,70,2013-08-24 13:15:00
9:36 AM,71.6,57.2,60,30.29,10.0,NNE,6.9,-,N/A,,Clear,30,2013-08-24 13:36:00
9:57 AM,71.6,57.2,60,30.29,10.0,ENE,6.9,-,N/A,,Clear,60,2013-08-24 13:57:00
10:15 AM,73.4,57.2,57,30.29,10.0,NE,8.1,-,N/A,,Clear,50,2013-08-24 14:15:00
10:36 AM,73.4,59.0,61,30.30,10.0,ENE,6.9,-,N/A,,Clear,60,2013-08-24 14:36:00
10:57 AM,75.2,59.0,57,30.30,10.0,ENE,6.9,-,N/A,,Clear,70,2013-08-24 14:57:00
11:15 AM,75.2,59.0,57,30.30,10.0,NE,5.8,-,N/A,,Clear,50,2013-08-24 15:15:00
11:36 AM,77.0,59.0,54,30.30,10.0,ENE,9.2,-,N/A,,Clear,60,2013-08-24 15:36:00
11:57 AM,77.0,59.0,54,30.30,10.0,NNE,5.8,-,N/A,,Clear,30,2013-08-24 15:57:00
12:15 PM,77.0,59.0,54,30.30,10.0,ENE,4.6,-,N/A,,Scattered Clouds,70,2013-08-24 16:15:00
12:36 PM,78.8,59.0,51,30.30,10.0,ENE,6.9,-,N/A,,Scattered Clouds,70,2013-08-24 16:36:00
12:57 PM,77.0,59.0,54,30.29,10.0,East,9.2,-,N/A,,Scattered Clouds,80,2013-08-24 16:57:00
1:15 PM,78.8,57.2,47,30.29,10.0,East,9.2,-,N/A,,Scattered Clouds,80,2013-08-24 17:15:00
1:36 PM,80.6,57.2,45,30.29,10.0,NE,8.1,-,N/A,,Scattered Clouds,50,2013-08-24 17:36:00
1:57 PM,80.6,55.4,42,30.29,10.0,ESE,5.8,-,N/A,,Scattered Clouds,110,2013-08-24 17:57:00
2:18 PM,78.8,51.8,39,30.29,10.0,East,9.2,18.4,N/A,,Mostly Cloudy,80,2013-08-24 18:18:00
2:36 PM,77.0,55.4,47,30.29,10.0,East,9.2,-,N/A,,Overcast,100,2013-08-24 18:36:00
2:57 PM,80.6,53.6,39,30.29,10.0,NE,6.9,-,N/A,,Overcast,50,2013-08-24 18:57:00
3:18 PM,80.6,51.8,37,30.29,10.0,East,8.1,-,N/A,,Scattered Clouds,90,2013-08-24 19:18:00
3:36 PM,80.6,50.0,34,30.29,10.0,East,11.5,-,N/A,,Clear,90,2013-08-24 19:36:00
3:57 PM,80.6,50.0,34,30.29,10.0,East,5.8,-,N/A,,Clear,90,2013-08-24 19:57:00
4:18 PM,80.6,50.0,34,30.29,10.0,East,5.8,-,N/A,,Clear,80,2013-08-24 20:18:00
4:36 PM,80.6,50.0,34,30.29,10.0,ENE,4.6,-,N/A,,Clear,60,2013-08-24 20:36:00
4:57 PM,78.8,48.2,34,30.29,10.0,Calm,Calm,-,N/A,,Clear,0,2013-08-24 20:57:00
5:18 PM,78.8,48.2,34,30.29,10.0,ENE,6.9,-,N/A,,Clear,70,2013-08-24 21:18:00
5:36 PM,78.8,48.2,34,30.29,10.0,East,4.6,-,N/A,,Clear,100,2013-08-24 21:36:00
5:57 PM,78.8,50.0,36,30.29,10.0,East,5.8,-,N/A,,Clear,100,2013-08-24 21:57:00
6:18 PM,77.0,50.0,39,30.29,10.0,ENE,5.8,-,N/A,,Clear,60,2013-08-24 22:18:00
6:36 PM,77.0,50.0,39,30.29,10.0,East,8.1,-,N/A,,Clear,100,2013-08-24 22:36:00
6:57 PM,73.4,51.8,47,30.30,10.0,ENE,5.8,-,N/A,,Clear,70,2013-08-24 22:57:00
7:18 PM,71.6,53.6,53,30.30,10.0,East,5.8,-,N/A,,Clear,80,2013-08-24 23:18:00
7:36 PM,69.8,57.2,64,30.31,10.0,East,3.5,-,N/A,,Clear,100,2013-08-24 23:36:00
7:57 PM,66.2,59.0,78,30.31,10.0,Calm,Calm,-,N/A,,Clear,0,2013-08-24 23:57:00
8:18 PM,64.4,59.0,83,30.32,10.0,Calm,Calm,-,N/A,,Clear,0,2013-08-25 00:18:00
8:36 PM,62.6,57.2,82,30.32,10.0,Calm,Calm,-,N/A,,Clear,0,2013-08-25 00:36:00
8:57 PM,60.8,57.2,88,30.33,10.0,Calm,Calm,-,N/A,,Clear,0,2013-08-25 00:57:00
9:18 PM,60.8,55.4,82,30.34,10.0,Calm,Calm,-,N/A,,Clear,0,2013-08-25 01:18:00
9:36 PM,60.8,55.4,82,30.35,10.0,Calm,Calm,-,N/A,,Clear,0,2013-08-25 01:36:00
9:57 PM,59.0,55.4,88,30.35,10.0,Calm,Calm,-,N/A,,Clear,0,2013-08-25 01:57:00
10:18 PM,59.0,55.4,88,30.35,10.0,Calm,Calm,-,N/A,,Clear,0,2013-08-25 02:18:00
10:39 PM,59.0,55.4,88,30.35,10.0,Calm,Calm,-,N/A,,Clear,0,2013-08-25 02:39:00
10:57 PM,59.0,55.4,88,30.36,10.0,Calm,Calm,-,N/A,,Clear,0,2013-08-25 02:57:00
11:18 PM,57.2,55.4,94,30.36,10.0,Calm,Calm,-,N/A,,Clear,0,2013-08-25 03:18:00
11:39 PM,57.2,55.4,94,30.37,10.0,Calm,Calm,-,N/A,,Clear,0,2013-08-25 03:39:00
11:57 PM,55.4,53.6,94,30.37,10.0,Calm,Calm,-,N/A,,Clear,0,2013-08-25 03:57:00